sensor_id;sensor_type;location;lat;lon;timestamp;temperature;humidity
55026;DHT22;40925;45.666;18.994;2023-11-21T00:01:18;204.80;2252.80
55026;DHT22;40925;45.666;18.994;2023-11-21T00:03:43;204.80;2252.80
55026;DHT22;40925;45.666;18.994;2023-11-21T00:06:09;204.90;2252.80
55026;DHT22;40925;45.666;18.994;2023-11-21T00:08:36;204.80;2252.80
55026;DHT22;40925;45.666;18.994;2023-11-21T00:11:02;204.80;2252.80
55026;DHT22;40925;45.666;18.994;2023-11-21T00:13:33;204.80;2252.80
55026;DHT22;40925;45.666;18.994;2023-11-21T01:01:27;180.10;2252.80
55026;DHT22;40925;45.666;18.994;2023-11-21T01:03:53;180.10;2252.80
55026;DHT22;40925;45.666;18.994;2023-11-21T01:06:19;204.80;2252.80
55026;DHT22;40925;45.666;18.994;2023-11-21T01:08:45;204.90;2252.80
55026;DHT22;40925;45.666;18.994;2023-11-21T01:11:11;205.00;2252.80
55026;DHT22;40925;45.666;18.994;2023-11-21T01:13:40;205.00;2252.80
55026;DHT22;40925;45.666;18.994;2023-11-21T01:16:07;205.10;2252.80
55026;DHT22;40925;45.666;18.994;2023-11-21T01:18:34;205.10;2252.80
55026;DHT22;40925;45.666;18.994;2023-11-21T01:21:03;205.10;2252.80
55026;DHT22;40925;45.666;18.994;2023-11-21T01:23:29;205.20;2252.80
55026;DHT22;40925;45.666;18.994;2023-11-21T01:25:56;205.20;2252.80
55026;DHT22;40925;45.666;18.994;2023-11-21T01:28:22;205.20;2252.80
55026;DHT22;40925;45.666;18.994;2023-11-21T01:30:48;205.20;2252.80
55026;DHT22;40925;45.666;18.994;2023-11-21T01:33:14;205.20;2252.80
55026;DHT22;40925;45.666;18.994;2023-11-21T01:35:44;205.10;2252.80
55026;DHT22;40925;45.666;18.994;2023-11-21T01:38:11;205.10;2252.80
55026;DHT22;40925;45.666;18.994;2023-11-21T01:40:37;205.10;2252.80
55026;DHT22;40925;45.666;18.994;2023-11-21T01:43:03;205.10;2252.80
55026;DHT22;40925;45.666;18.994;2023-11-21T01:45:29;205.10;2252.80
55026;DHT22;40925;45.666;18.994;2023-11-21T01:47:57;205.00;2252.80
55026;DHT22;40925;45.666;18.994;2023-11-21T01:50:24;205.00;2252.80
55026;DHT22;40925;45.666;18.994;2023-11-21T01:52:50;205.00;2252.80
55026;DHT22;40925;45.666;18.994;2023-11-21T01:55:18;205.00;2252.80
55026;DHT22;40925;45.666;18.994;2023-11-21T01:57:45;204.90;2252.80
55026;DHT22;40925;45.666;18.994;2023-11-21T02:00:12;205.00;2252.80
55026;DHT22;40925;45.666;18.994;2023-11-21T02:02:44;204.90;2252.80
55026;DHT22;40925;45.666;18.994;2023-11-21T02:05:15;204.90;2252.80
55026;DHT22;40925;45.666;18.994;2023-11-21T02:07:42;204.80;2252.80
55026;DHT22;40925;45.666;18.994;2023-11-21T02:10:09;204.80;2252.80
55026;DHT22;40925;45.666;18.994;2023-11-21T02:12:35;204.80;2252.80
55026;DHT22;40925;45.666;18.994;2023-11-21T02:15:05;204.80;2252.80
55026;DHT22;40925;45.666;18.994;2023-11-21T02:17:35;180.10;2252.80
55026;DHT22;40925;45.666;18.994;2023-11-21T02:20:01;204.80;2252.80
55026;DHT22;40925;45.666;18.994;2023-11-21T02:22:31;180.10;2252.80
55026;DHT22;40925;45.666;18.994;2023-11-21T02:25:00;180.10;2252.80
55026;DHT22;40925;45.666;18.994;2023-11-21T02:27:26;180.00;2252.80
55026;DHT22;40925;45.666;18.994;2023-11-21T02:29:53;179.80;2252.80
55026;DHT22;40925;45.666;18.994;2023-11-21T02:32:19;179.70;2252.80
55026;DHT22;40925;45.666;18.994;2023-11-21T02:34:48;179.80;2252.80
55026;DHT22;40925;45.666;18.994;2023-11-21T02:37:14;179.80;2252.80
55026;DHT22;40925;45.666;18.994;2023-11-21T02:39:40;179.70;2252.80
55026;DHT22;40925;45.666;18.994;2023-11-21T02:42:05;179.60;2252.80
55026;DHT22;40925;45.666;18.994;2023-11-21T02:44:32;179.60;2252.80
55026;DHT22;40925;45.666;18.994;2023-11-21T02:46:58;179.60;2252.80
55026;DHT22;40925;45.666;18.994;2023-11-21T02:49:23;179.70;2252.80
55026;DHT22;40925;45.666;18.994;2023-11-21T02:51:49;179.80;2252.80
55026;DHT22;40925;45.666;18.994;2023-11-21T02:54:15;179.80;2252.80
55026;DHT22;40925;45.666;18.994;2023-11-21T02:56:42;179.80;2252.80
55026;DHT22;40925;45.666;18.994;2023-11-21T02:59:08;179.80;2252.80
55026;DHT22;40925;45.666;18.994;2023-11-21T03:01:34;179.80;2252.80
55026;DHT22;40925;45.666;18.994;2023-11-21T03:04:00;179.80;2252.80
55026;DHT22;40925;45.666;18.994;2023-11-21T03:06:25;179.80;2252.80
55026;DHT22;40925;45.666;18.994;2023-11-21T03:08:51;179.80;2252.80
55026;DHT22;40925;45.666;18.994;2023-11-21T03:11:17;179.90;2252.80
55026;DHT22;40925;45.666;18.994;2023-11-21T03:13:42;180.00;2252.80
55026;DHT22;40925;45.666;18.994;2023-11-21T03:16:11;180.00;2252.80
55026;DHT22;40925;45.666;18.994;2023-11-21T03:18:40;180.10;2252.80
55026;DHT22;40925;45.666;18.994;2023-11-21T03:21:09;204.80;2252.80
55026;DHT22;40925;45.666;18.994;2023-11-21T03:23:35;204.90;2252.80
55026;DHT22;40925;45.666;18.994;2023-11-21T03:26:02;204.90;2252.80
55026;DHT22;40925;45.666;18.994;2023-11-21T03:28:27;204.90;2252.80
55026;DHT22;40925;45.666;18.994;2023-11-21T03:30:53;205.00;2252.80
55026;DHT22;40925;45.666;18.994;2023-11-21T03:33:20;205.00;2252.80
55026;DHT22;40925;45.666;18.994;2023-11-21T03:35:46;204.80;2252.80
55026;DHT22;40925;45.666;18.994;2023-11-21T03:38:11;180.00;2252.80
55026;DHT22;40925;45.666;18.994;2023-11-21T04:05:06;205.10;2252.80
55026;DHT22;40925;45.666;18.994;2023-11-21T04:24:39;205.20;2252.80
55026;DHT22;40925;45.666;18.994;2023-11-21T04:27:05;205.00;2252.80
55026;DHT22;40925;45.666;18.994;2023-11-21T04:29:30;205.10;2252.80
55026;DHT22;40925;45.666;18.994;2023-11-21T04:31:56;205.00;2252.80
55026;DHT22;40925;45.666;18.994;2023-11-21T04:34:22;205.00;2252.80
55026;DHT22;40925;45.666;18.994;2023-11-21T04:36:47;205.00;2252.80
55026;DHT22;40925;45.666;18.994;2023-11-21T04:39:13;205.00;2252.80
55026;DHT22;40925;45.666;18.994;2023-11-21T04:41:39;205.00;2252.80
55026;DHT22;40925;45.666;18.994;2023-11-21T04:44:06;205.10;2252.80
55026;DHT22;40925;45.666;18.994;2023-11-21T04:46:32;205.10;2252.80
55026;DHT22;40925;45.666;18.994;2023-11-21T04:48:58;205.20;2252.80
55026;DHT22;40925;45.666;18.994;2023-11-21T04:51:24;205.30;2252.80
55026;DHT22;40925;45.666;18.994;2023-11-21T04:56:16;205.50;2252.80
55026;DHT22;40925;45.666;18.994;2023-11-21T04:58:42;205.20;2252.80
55026;DHT22;40925;45.666;18.994;2023-11-21T05:01:08;205.20;2252.80
55026;DHT22;40925;45.666;18.994;2023-11-21T05:03:36;205.20;2252.80
55026;DHT22;40925;45.666;18.994;2023-11-21T05:06:04;205.20;2252.80
55026;DHT22;40925;45.666;18.994;2023-11-21T05:08:30;205.20;2252.80
55026;DHT22;40925;45.666;18.994;2023-11-21T05:10:56;205.20;2252.80
55026;DHT22;40925;45.666;18.994;2023-11-21T05:13:22;205.20;2252.80
55026;DHT22;40925;45.666;18.994;2023-11-21T05:15:54;205.20;2252.80
55026;DHT22;40925;45.666;18.994;2023-11-21T05:18:19;205.10;2252.80
55026;DHT22;40925;45.666;18.994;2023-11-21T05:20:46;205.10;2252.80
55026;DHT22;40925;45.666;18.994;2023-11-21T05:23:12;205.10;2252.80
55026;DHT22;40925;45.666;18.994;2023-11-21T05:25:38;205.10;2252.80
55026;DHT22;40925;45.666;18.994;2023-11-21T05:28:04;205.20;2252.80
55026;DHT22;40925;45.666;18.994;2023-11-21T05:30:29;205.20;2252.80
55026;DHT22;40925;45.666;18.994;2023-11-21T05:32:55;205.20;2252.80
55026;DHT22;40925;45.666;18.994;2023-11-21T05:35:21;205.20;2252.80
55026;DHT22;40925;45.666;18.994;2023-11-21T05:37:46;205.10;2252.80
55026;DHT22;40925;45.666;18.994;2023-11-21T05:40:13;205.10;2252.80
55026;DHT22;40925;45.666;18.994;2023-11-21T05:42:39;205.10;2252.80
55026;DHT22;40925;45.666;18.994;2023-11-21T05:45:06;205.10;2252.80
55026;DHT22;40925;45.666;18.994;2023-11-21T05:47:45;205.10;2252.80
55026;DHT22;40925;45.666;18.994;2023-11-21T05:50:16;205.10;2252.80
55026;DHT22;40925;45.666;18.994;2023-11-21T05:52:46;205.10;2252.80
55026;DHT22;40925;45.666;18.994;2023-11-21T05:55:22;205.10;2252.80
55026;DHT22;40925;45.666;18.994;2023-11-21T05:57:51;205.10;2252.80
55026;DHT22;40925;45.666;18.994;2023-11-21T06:00:16;205.10;2252.80
55026;DHT22;40925;45.666;18.994;2023-11-21T06:02:46;205.10;2252.80
55026;DHT22;40925;45.666;18.994;2023-11-21T06:05:12;205.20;2252.80
55026;DHT22;40925;45.666;18.994;2023-11-21T06:07:38;205.10;2252.80
55026;DHT22;40925;45.666;18.994;2023-11-21T06:10:06;205.20;2252.80
55026;DHT22;40925;45.666;18.994;2023-11-21T06:12:34;205.20;2252.80
55026;DHT22;40925;45.666;18.994;2023-11-21T06:15:04;205.30;2252.80
55026;DHT22;40925;45.666;18.994;2023-11-21T06:17:31;205.30;2252.80
55026;DHT22;40925;45.666;18.994;2023-11-21T06:19:57;205.30;2252.80
55026;DHT22;40925;45.666;18.994;2023-11-21T06:22:23;205.30;2252.80
55026;DHT22;40925;45.666;18.994;2023-11-21T06:24:48;205.30;2252.80
55026;DHT22;40925;45.666;18.994;2023-11-21T06:27:14;205.30;2252.80
55026;DHT22;40925;45.666;18.994;2023-11-21T06:29:41;205.40;2252.80
55026;DHT22;40925;45.666;18.994;2023-11-21T06:32:07;205.40;2252.80
55026;DHT22;40925;45.666;18.994;2023-11-21T06:34:34;205.50;2252.80
55026;DHT22;40925;45.666;18.994;2023-11-21T06:36:59;205.50;2252.80
55026;DHT22;40925;45.666;18.994;2023-11-21T06:39:25;205.50;2252.80
55026;DHT22;40925;45.666;18.994;2023-11-21T06:41:51;205.60;2252.80
55026;DHT22;40925;45.666;18.994;2023-11-21T06:44:16;205.50;2252.80
55026;DHT22;40925;45.666;18.994;2023-11-21T06:46:42;205.50;2252.80
55026;DHT22;40925;45.666;18.994;2023-11-21T06:49:08;205.50;2252.80
55026;DHT22;40925;45.666;18.994;2023-11-21T06:51:34;205.50;2252.80
55026;DHT22;40925;45.666;18.994;2023-11-21T06:54:00;205.50;2252.80
55026;DHT22;40925;45.666;18.994;2023-11-21T06:56:25;205.50;2252.80
55026;DHT22;40925;45.666;18.994;2023-11-21T06:58:51;205.60;2252.80
55026;DHT22;40925;45.666;18.994;2023-11-21T07:01:19;205.50;2252.80
55026;DHT22;40925;45.666;18.994;2023-11-21T07:03:45;205.60;2252.80
55026;DHT22;40925;45.666;18.994;2023-11-21T07:06:14;205.50;2252.80
55026;DHT22;40925;45.666;18.994;2023-11-21T07:08:39;205.60;2252.80
55026;DHT22;40925;45.666;18.994;2023-11-21T07:11:05;205.60;2252.80
55026;DHT22;40925;45.666;18.994;2023-11-21T07:13:32;205.60;2252.80
55026;DHT22;40925;45.666;18.994;2023-11-21T07:15:58;205.60;2252.80
55026;DHT22;40925;45.666;18.994;2023-11-21T07:18:24;205.60;2252.80
55026;DHT22;40925;45.666;18.994;2023-11-21T07:20:50;205.70;2252.80
55026;DHT22;40925;45.666;18.994;2023-11-21T07:23:17;205.70;2252.80
55026;DHT22;40925;45.666;18.994;2023-11-21T07:25:42;230.40;2252.80
55026;DHT22;40925;45.666;18.994;2023-11-21T07:28:08;230.40;2252.80
55026;DHT22;40925;45.666;18.994;2023-11-21T07:30:34;230.40;2252.80
55026;DHT22;40925;45.666;18.994;2023-11-21T07:33:00;230.50;2252.80
55026;DHT22;40925;45.666;18.994;2023-11-21T07:35:26;230.50;2252.80
55026;DHT22;40925;45.666;18.994;2023-11-21T07:37:52;230.50;2252.80
55026;DHT22;40925;45.666;18.994;2023-11-21T07:40:18;230.50;2252.80
55026;DHT22;40925;45.666;18.994;2023-11-21T07:42:43;230.60;2252.80
55026;DHT22;40925;45.666;18.994;2023-11-21T07:45:09;230.60;2252.80
55026;DHT22;40925;45.666;18.994;2023-11-21T07:47:35;230.70;2252.80
55026;DHT22;40925;45.666;18.994;2023-11-21T07:50:02;230.70;2252.80
55026;DHT22;40925;45.666;18.994;2023-11-21T07:52:28;230.80;2252.80
55026;DHT22;40925;45.666;18.994;2023-11-21T07:54:54;230.80;2252.80
55026;DHT22;40925;45.666;18.994;2023-11-21T07:57:20;230.80;2252.80
55026;DHT22;40925;45.666;18.994;2023-11-21T07:59:45;230.90;2252.80
55026;DHT22;40925;45.666;18.994;2023-11-21T08:02:11;230.90;2252.80
55026;DHT22;40925;45.666;18.994;2023-11-21T08:04:37;230.90;2252.80
55026;DHT22;40925;45.666;18.994;2023-11-21T08:07:03;231.00;2252.80
55026;DHT22;40925;45.666;18.994;2023-11-21T08:09:29;231.00;2252.80
55026;DHT22;40925;45.666;18.994;2023-11-21T08:11:55;231.00;2252.80
55026;DHT22;40925;45.666;18.994;2023-11-21T08:14:22;231.00;2252.80
55026;DHT22;40925;45.666;18.994;2023-11-21T08:16:50;231.00;2252.80
55026;DHT22;40925;45.666;18.994;2023-11-21T08:19:16;231.00;2252.80
55026;DHT22;40925;45.666;18.994;2023-11-21T08:21:43;231.00;2252.80
55026;DHT22;40925;45.666;18.994;2023-11-21T08:24:10;231.00;2252.80
55026;DHT22;40925;45.666;18.994;2023-11-21T08:26:37;231.00;2252.80
55026;DHT22;40925;45.666;18.994;2023-11-21T08:29:03;231.00;2252.80
55026;DHT22;40925;45.666;18.994;2023-11-21T08:31:32;230.90;2252.80
55026;DHT22;40925;45.666;18.994;2023-11-21T08:33:58;230.90;2252.80
55026;DHT22;40925;45.666;18.994;2023-11-21T08:36:26;230.90;2252.80
55026;DHT22;40925;45.666;18.994;2023-11-21T08:38:52;231.00;2252.80
55026;DHT22;40925;45.666;18.994;2023-11-21T08:41:18;230.90;2252.80
55026;DHT22;40925;45.666;18.994;2023-11-21T08:43:49;231.00;2252.80
55026;DHT22;40925;45.666;18.994;2023-11-21T08:46:15;231.00;2252.80
55026;DHT22;40925;45.666;18.994;2023-11-21T08:48:42;231.00;2252.80
55026;DHT22;40925;45.666;18.994;2023-11-21T08:51:10;231.00;2252.80
55026;DHT22;40925;45.666;18.994;2023-11-21T08:53:37;231.00;2252.80
55026;DHT22;40925;45.666;18.994;2023-11-21T08:56:03;231.00;2252.80
55026;DHT22;40925;45.666;18.994;2023-11-21T08:58:31;231.00;2252.80
55026;DHT22;40925;45.666;18.994;2023-11-21T09:00:57;231.00;2252.80
55026;DHT22;40925;45.666;18.994;2023-11-21T09:03:23;231.00;2252.80
55026;DHT22;40925;45.666;18.994;2023-11-21T09:05:49;231.00;2252.80
55026;DHT22;40925;45.666;18.994;2023-11-21T09:08:14;231.00;2252.80
55026;DHT22;40925;45.666;18.994;2023-11-21T09:10:40;231.00;2252.80
55026;DHT22;40925;45.666;18.994;2023-11-21T09:13:08;231.00;2252.80
55026;DHT22;40925;45.666;18.994;2023-11-21T09:15:34;231.00;2252.80
55026;DHT22;40925;45.666;18.994;2023-11-21T09:18:00;231.00;2252.80
55026;DHT22;40925;45.666;18.994;2023-11-21T09:20:27;231.00;2252.80
55026;DHT22;40925;45.666;18.994;2023-11-21T09:22:55;231.00;2252.80
55026;DHT22;40925;45.666;18.994;2023-11-21T09:25:21;231.10;2252.80
55026;DHT22;40925;45.666;18.994;2023-11-21T09:27:48;231.10;2252.80
55026;DHT22;40925;45.666;18.994;2023-11-21T09:30:13;231.10;2252.80
55026;DHT22;40925;45.666;18.994;2023-11-21T09:32:42;231.20;2252.80
55026;DHT22;40925;45.666;18.994;2023-11-21T09:35:10;231.20;2252.80
55026;DHT22;40925;45.666;18.994;2023-11-21T09:37:37;231.20;2252.80
55026;DHT22;40925;45.666;18.994;2023-11-21T09:40:04;231.20;2252.80
55026;DHT22;40925;45.666;18.994;2023-11-21T09:42:37;231.30;2252.80
55026;DHT22;40925;45.666;18.994;2023-11-21T09:48:05;231.30;2252.80
55026;DHT22;40925;45.666;18.994;2023-11-21T09:50:33;231.30;2252.80
55026;DHT22;40925;45.666;18.994;2023-11-21T09:53:16;231.30;2252.80
55026;DHT22;40925;45.666;18.994;2023-11-21T09:55:45;231.30;2252.80
55026;DHT22;40925;45.666;18.994;2023-11-21T09:58:13;231.30;2252.80
55026;DHT22;40925;45.666;18.994;2023-11-21T10:00:43;231.30;2252.80
55026;DHT22;40925;45.666;18.994;2023-11-21T10:03:10;231.30;2252.80
55026;DHT22;40925;45.666;18.994;2023-11-21T10:05:36;231.20;2252.80
55026;DHT22;40925;45.666;18.994;2023-11-21T10:08:07;231.20;2252.80
55026;DHT22;40925;45.666;18.994;2023-11-21T10:10:36;231.20;2252.80
55026;DHT22;40925;45.666;18.994;2023-11-21T10:13:05;231.10;2252.80
55026;DHT22;40925;45.666;18.994;2023-11-21T10:15:34;231.10;2252.80
55026;DHT22;40925;45.666;18.994;2023-11-21T10:18:04;231.20;2252.80
55026;DHT22;40925;45.666;18.994;2023-11-21T10:20:34;231.20;2252.80
55026;DHT22;40925;45.666;18.994;2023-11-21T10:23:03;231.10;2252.80
55026;DHT22;40925;45.666;18.994;2023-11-21T10:25:30;230.90;2252.80
55026;DHT22;40925;45.666;18.994;2023-11-21T10:27:59;231.10;2252.80
55026;DHT22;40925;45.666;18.994;2023-11-21T10:30:45;231.10;2252.80
55026;DHT22;40925;45.666;18.994;2023-11-21T10:33:13;231.10;2252.80
55026;DHT22;40925;45.666;18.994;2023-11-21T10:38:07;231.10;2252.80
55026;DHT22;40925;45.666;18.994;2023-11-21T10:40:38;231.10;2252.80
55026;DHT22;40925;45.666;18.994;2023-11-21T10:43:08;231.10;2252.80
55026;DHT22;40925;45.666;18.994;2023-11-21T10:45:37;231.10;2252.80
55026;DHT22;40925;45.666;18.994;2023-11-21T10:48:13;231.10;2252.80
55026;DHT22;40925;45.666;18.994;2023-11-21T10:50:47;231.10;2252.80
55026;DHT22;40925;45.666;18.994;2023-11-21T10:53:13;231.00;2252.80
55026;DHT22;40925;45.666;18.994;2023-11-21T10:55:39;231.00;2252.80
55026;DHT22;40925;45.666;18.994;2023-11-21T10:58:05;231.00;2252.80
55026;DHT22;40925;45.666;18.994;2023-11-21T11:00:32;231.00;2252.80
55026;DHT22;40925;45.666;18.994;2023-11-21T11:02:59;231.00;2252.80
55026;DHT22;40925;45.666;18.994;2023-11-21T11:05:28;231.00;2252.80
55026;DHT22;40925;45.666;18.994;2023-11-21T11:08:04;231.00;2252.80
55026;DHT22;40925;45.666;18.994;2023-11-21T11:10:31;231.00;2252.80
55026;DHT22;40925;45.666;18.994;2023-11-21T11:13:01;231.00;2252.80
55026;DHT22;40925;45.666;18.994;2023-11-21T11:15:28;231.00;2252.80
55026;DHT22;40925;45.666;18.994;2023-11-21T11:17:54;231.00;2252.80
55026;DHT22;40925;45.666;18.994;2023-11-21T11:20:33;231.00;2252.80
55026;DHT22;40925;45.666;18.994;2023-11-21T11:26:07;230.90;2252.80
55026;DHT22;40925;45.666;18.994;2023-11-21T11:28:37;230.90;2252.80
55026;DHT22;40925;45.666;18.994;2023-11-21T11:37:04;230.90;2252.80
55026;DHT22;40925;45.666;18.994;2023-11-21T11:39:35;230.90;2252.80
55026;DHT22;40925;45.666;18.994;2023-11-21T11:42:07;230.90;2252.80
55026;DHT22;40925;45.666;18.994;2023-11-21T11:47:15;230.90;2252.80
55026;DHT22;40925;45.666;18.994;2023-11-21T11:52:46;230.80;2252.80
55026;DHT22;40925;45.666;18.994;2023-11-21T11:55:13;230.80;2252.80
55026;DHT22;40925;45.666;18.994;2023-11-21T11:57:42;230.80;2252.80
55026;DHT22;40925;45.666;18.994;2023-11-21T12:00:12;230.80;2252.80
55026;DHT22;40925;45.666;18.994;2023-11-21T12:02:50;230.80;2252.80
55026;DHT22;40925;45.666;18.994;2023-11-21T12:05:21;230.80;2252.80
55026;DHT22;40925;45.666;18.994;2023-11-21T12:07:48;230.80;2252.80
55026;DHT22;40925;45.666;18.994;2023-11-21T12:10:15;230.80;2252.80
55026;DHT22;40925;45.666;18.994;2023-11-21T12:12:46;230.80;2252.80
55026;DHT22;40925;45.666;18.994;2023-11-21T12:15:12;230.80;2252.80
55026;DHT22;40925;45.666;18.994;2023-11-21T12:17:42;230.70;2252.80
55026;DHT22;40925;45.666;18.994;2023-11-21T12:20:10;230.80;2252.80
55026;DHT22;40925;45.666;18.994;2023-11-21T12:22:46;230.70;2252.80
55026;DHT22;40925;45.666;18.994;2023-11-21T12:25:23;230.70;2252.80
55026;DHT22;40925;45.666;18.994;2023-11-21T12:27:53;230.70;2252.80
55026;DHT22;40925;45.666;18.994;2023-11-21T12:30:23;230.70;2252.80
55026;DHT22;40925;45.666;18.994;2023-11-21T12:32:50;230.70;2252.80
55026;DHT22;40925;45.666;18.994;2023-11-21T12:35:19;230.70;2252.80
55026;DHT22;40925;45.666;18.994;2023-11-21T12:37:45;230.70;2252.80
55026;DHT22;40925;45.666;18.994;2023-11-21T12:40:12;230.70;2252.80
55026;DHT22;40925;45.666;18.994;2023-11-21T12:42:48;230.80;2252.80
55026;DHT22;40925;45.666;18.994;2023-11-21T12:47:44;230.80;2252.80
55026;DHT22;40925;45.666;18.994;2023-11-21T12:50:12;230.80;2252.80
55026;DHT22;40925;45.666;18.994;2023-11-21T12:52:42;230.80;2252.80
55026;DHT22;40925;45.666;18.994;2023-11-21T12:55:15;230.80;2252.80
55026;DHT22;40925;45.666;18.994;2023-11-21T12:57:42;230.80;2252.80
55026;DHT22;40925;45.666;18.994;2023-11-21T13:00:09;230.80;2252.80
55026;DHT22;40925;45.666;18.994;2023-11-21T13:02:41;230.80;2252.80
55026;DHT22;40925;45.666;18.994;2023-11-21T13:08:44;230.80;2252.80
55026;DHT22;40925;45.666;18.994;2023-11-21T13:11:11;230.80;2252.80
55026;DHT22;40925;45.666;18.994;2023-11-21T13:13:41;230.80;2252.80
55026;DHT22;40925;45.666;18.994;2023-11-21T13:16:11;230.70;2252.80
55026;DHT22;40925;45.666;18.994;2023-11-21T13:18:37;230.70;2252.80
55026;DHT22;40925;45.666;18.994;2023-11-21T13:24:27;230.70;2252.80
55026;DHT22;40925;45.666;18.994;2023-11-21T13:26:53;230.70;2252.80
55026;DHT22;40925;45.666;18.994;2023-11-21T13:29:20;230.70;2252.80
55026;DHT22;40925;45.666;18.994;2023-11-21T13:31:46;230.70;2252.80
55026;DHT22;40925;45.666;18.994;2023-11-21T13:34:19;230.70;2252.80
55026;DHT22;40925;45.666;18.994;2023-11-21T13:36:48;230.60;2252.80
55026;DHT22;40925;45.666;18.994;2023-11-21T13:39:16;230.70;2252.80
55026;DHT22;40925;45.666;18.994;2023-11-21T13:41:48;230.70;2252.80
55026;DHT22;40925;45.666;18.994;2023-11-21T13:44:20;230.70;2252.80
55026;DHT22;40925;45.666;18.994;2023-11-21T13:46:54;230.70;2252.80
55026;DHT22;40925;45.666;18.994;2023-11-21T13:49:22;230.70;2252.80
55026;DHT22;40925;45.666;18.994;2023-11-21T13:51:48;230.60;2252.80
55026;DHT22;40925;45.666;18.994;2023-11-21T13:54:18;230.70;2252.80
55026;DHT22;40925;45.666;18.994;2023-11-21T13:56:46;230.70;2252.80
55026;DHT22;40925;45.666;18.994;2023-11-21T13:59:12;230.70;2252.80
55026;DHT22;40925;45.666;18.994;2023-11-21T14:01:51;230.70;2252.80
55026;DHT22;40925;45.666;18.994;2023-11-21T14:04:43;230.70;2252.80
55026;DHT22;40925;45.666;18.994;2023-11-21T14:07:24;230.70;2252.80
55026;DHT22;40925;45.666;18.994;2023-11-21T14:10:02;230.70;2252.80
55026;DHT22;40925;45.666;18.994;2023-11-21T14:12:29;230.70;2252.80
55026;DHT22;40925;45.666;18.994;2023-11-21T14:14:59;230.70;2252.80
55026;DHT22;40925;45.666;18.994;2023-11-21T14:17:25;230.70;2252.80
55026;DHT22;40925;45.666;18.994;2023-11-21T14:19:52;230.70;2252.80
55026;DHT22;40925;45.666;18.994;2023-11-21T14:22:20;230.70;2252.80
55026;DHT22;40925;45.666;18.994;2023-11-21T14:24:46;230.70;2252.80
55026;DHT22;40925;45.666;18.994;2023-11-21T14:27:13;230.70;2252.80
55026;DHT22;40925;45.666;18.994;2023-11-21T14:29:40;230.70;2252.80
55026;DHT22;40925;45.666;18.994;2023-11-21T14:32:09;230.70;2252.80
55026;DHT22;40925;45.666;18.994;2023-11-21T14:34:35;230.70;2252.80
55026;DHT22;40925;45.666;18.994;2023-11-21T14:37:02;230.70;2252.80
55026;DHT22;40925;45.666;18.994;2023-11-21T14:39:28;230.80;2252.80
55026;DHT22;40925;45.666;18.994;2023-11-21T14:41:55;230.70;2252.80
55026;DHT22;40925;45.666;18.994;2023-11-21T14:44:22;230.70;2252.80
55026;DHT22;40925;45.666;18.994;2023-11-21T14:46:53;230.60;2252.80
55026;DHT22;40925;45.666;18.994;2023-11-21T14:49:20;230.60;2252.80
55026;DHT22;40925;45.666;18.994;2023-11-21T14:51:50;230.60;2252.80
55026;DHT22;40925;45.666;18.994;2023-11-21T14:54:29;230.60;2252.80
55026;DHT22;40925;45.666;18.994;2023-11-21T14:57:17;230.60;2252.80
55026;DHT22;40925;45.666;18.994;2023-11-21T14:59:45;230.60;2252.80
55026;DHT22;40925;45.666;18.994;2023-11-21T15:02:15;230.60;2252.80
55026;DHT22;40925;45.666;18.994;2023-11-21T15:04:44;230.60;2252.80
55026;DHT22;40925;45.666;18.994;2023-11-21T15:07:10;230.60;2252.80
55026;DHT22;40925;45.666;18.994;2023-11-21T15:09:39;230.60;2252.80
55026;DHT22;40925;45.666;18.994;2023-11-21T15:12:07;230.60;2252.80
55026;DHT22;40925;45.666;18.994;2023-11-21T15:14:50;230.60;2252.80
55026;DHT22;40925;45.666;18.994;2023-11-21T15:17:20;230.70;2252.80
55026;DHT22;40925;45.666;18.994;2023-11-21T15:19:50;230.70;2252.80
55026;DHT22;40925;45.666;18.994;2023-11-21T15:22:16;230.70;2252.80
55026;DHT22;40925;45.666;18.994;2023-11-21T15:24:42;230.70;2252.80
55026;DHT22;40925;45.666;18.994;2023-11-21T15:27:10;230.70;2252.80
55026;DHT22;40925;45.666;18.994;2023-11-21T15:29:38;230.60;2252.80
55026;DHT22;40925;45.666;18.994;2023-11-21T15:32:05;230.70;2252.80
55026;DHT22;40925;45.666;18.994;2023-11-21T15:34:32;230.70;2252.80
55026;DHT22;40925;45.666;18.994;2023-11-21T15:36:58;230.60;2252.80
55026;DHT22;40925;45.666;18.994;2023-11-21T15:39:24;230.60;2252.80
55026;DHT22;40925;45.666;18.994;2023-11-21T15:41:54;230.60;2252.80
55026;DHT22;40925;45.666;18.994;2023-11-21T15:44:20;230.60;2252.80
55026;DHT22;40925;45.666;18.994;2023-11-21T15:46:46;230.50;2252.80
55026;DHT22;40925;45.666;18.994;2023-11-21T15:49:13;230.50;2252.80
55026;DHT22;40925;45.666;18.994;2023-11-21T15:51:45;230.60;2252.80
55026;DHT22;40925;45.666;18.994;2023-11-21T15:54:23;230.50;2252.80
55026;DHT22;40925;45.666;18.994;2023-11-21T15:56:55;230.60;2252.80
55026;DHT22;40925;45.666;18.994;2023-11-21T15:59:23;230.50;2252.80
55026;DHT22;40925;45.666;18.994;2023-11-21T16:01:59;230.60;2252.80
55026;DHT22;40925;45.666;18.994;2023-11-21T16:04:25;230.50;2252.80
55026;DHT22;40925;45.666;18.994;2023-11-21T16:06:54;230.50;2252.80
55026;DHT22;40925;45.666;18.994;2023-11-21T16:09:20;230.50;2252.80
55026;DHT22;40925;45.666;18.994;2023-11-21T16:12:00;230.50;2252.80
55026;DHT22;40925;45.666;18.994;2023-11-21T16:14:33;230.50;2252.80
55026;DHT22;40925;45.666;18.994;2023-11-21T16:17:01;230.50;2252.80
55026;DHT22;40925;45.666;18.994;2023-11-21T16:19:27;230.50;2252.80
55026;DHT22;40925;45.666;18.994;2023-11-21T16:21:53;230.50;2252.80
55026;DHT22;40925;45.666;18.994;2023-11-21T16:24:19;230.50;2252.80
55026;DHT22;40925;45.666;18.994;2023-11-21T16:26:48;230.50;2252.80
55026;DHT22;40925;45.666;18.994;2023-11-21T16:29:14;230.60;2252.80
55026;DHT22;40925;45.666;18.994;2023-11-21T16:31:41;230.50;2252.80
55026;DHT22;40925;45.666;18.994;2023-11-21T16:34:15;230.50;2252.80
55026;DHT22;40925;45.666;18.994;2023-11-21T16:36:42;230.60;2252.80
55026;DHT22;40925;45.666;18.994;2023-11-21T16:39:09;230.50;2252.80